Time;durP1;ratioP1;P1;durP2;ratioP2;P2;SDS_P1;SDS_P2;PMS_P1;PMS_P2;Temp;Humidity;BMP_temperature;BMP_pressure;BME280_temperature;BME280_humidity;BME280_pressure;Samples;Min_cycle;Max_cycle;Signal;HPM_P1;HPM_P2
2022/11/13 00:01:12;;;;;;;53.78;30.35;;;;;;;;;;4994216;28;92554;-78
2022/11/13 00:03:57;;;;;;;78.97;36.58;;;;;;;;;;5010179;28;92673;-79
2022/11/13 00:06:42;;;;;;;82.22;35.70;;;;;;;;;;4996100;28;94865;-78
2022/11/13 00:09:27;;;;;;;51.20;29.13;;;;;;;;;;4985485;28;94872;-78
2022/11/13 00:12:13;;;;;;;55.33;29.10;;;;;;;;;;4974047;28;93265;-79
2022/11/13 00:14:58;;;;;;;45.80;27.35;;;;;;;;;;4974713;28;92425;-78
2022/11/13 00:17:43;;;;;;;47.17;25.95;;;;;;;;;;4980625;28;93255;-79
2022/11/13 00:20:28;;;;;;;42.63;26.88;;;;;;;;;;4997030;28;92702;-78
2022/11/13 00:23:13;;;;;;;38.53;25.40;;;;;;;;;;4994177;28;92628;-78
2022/11/13 00:26:02;;;;;;;39.00;24.38;;;;;;;;;;4993735;28;91604;-78
2022/11/13 00:28:56;;;;;;;39.55;23.20;;;;;;;;;;4997165;28;92644;-79
2022/11/13 00:31:41;;;;;;;36.20;24.00;;;;;;;;;;4995864;28;92343;-78
2022/11/13 00:34:26;;;;;;;41.45;24.65;;;;;;;;;;4995363;28;94988;-78
2022/11/13 00:37:31;;;;;;;42.20;24.17;;;;;;;;;;4997171;28;92383;-78
2022/11/13 00:40:16;;;;;;;36.10;23.88;;;;;;;;;;4998701;28;92716;-78
2022/11/13 00:43:01;;;;;;;37.75;24.30;;;;;;;;;;4996680;28;92594;-78
2022/11/13 00:45:46;;;;;;;38.58;23.20;;;;;;;;;;5001253;28;92395;-78
2022/11/13 00:48:34;;;;;;;32.88;22.63;;;;;;;;;;4998146;28;92700;-78
2022/11/13 00:51:19;;;;;;;32.97;22.58;;;;;;;;;;4995498;28;92895;-77
2022/11/13 00:54:04;;;;;;;33.03;22.17;;;;;;;;;;4997818;28;92560;-77
2022/11/13 00:56:49;;;;;;;35.03;22.52;;;;;;;;;;4997549;28;92692;-78
2022/11/13 00:59:33;;;;;;;38.83;24.20;;;;;;;;;;4995953;28;92386;-78
2022/11/13 01:02:18;;;;;;;35.47;24.70;;;;;;;;;;4995727;28;94846;-78
2022/11/13 01:05:03;;;;;;;33.20;22.83;;;;;;;;;;4997367;28;92676;-77
2022/11/13 01:07:48;;;;;;;34.22;22.15;;;;;;;;;;4996407;28;92331;-78
2022/11/13 01:10:34;;;;;;;28.58;20.60;;;;;;;;;;4987286;28;92597;-78
2022/11/13 01:13:19;;;;;;;36.97;21.92;;;;;;;;;;4996138;28;92366;-78
2022/11/13 01:16:05;;;;;;;28.38;21.40;;;;;;;;;;4996318;28;92493;-78
2022/11/13 01:18:52;;;;;;;29.75;21.42;;;;;;;;;;4995655;28;92715;-77
2022/11/13 01:21:37;;;;;;;32.03;19.65;;;;;;;;;;4997363;28;91728;-77
2022/11/13 01:24:21;;;;;;;31.58;20.50;;;;;;;;;;4995564;28;92295;-78
2022/11/13 01:27:06;;;;;;;32.67;20.40;;;;;;;;;;4995874;28;92654;-78
2022/11/13 01:29:51;;;;;;;27.95;20.33;;;;;;;;;;4996184;28;94826;-78
2022/11/13 01:32:36;;;;;;;27.35;20.90;;;;;;;;;;4994767;28;94892;-78
2022/11/13 01:35:20;;;;;;;33.90;20.35;;;;;;;;;;4998876;28;92673;-78
2022/11/13 01:38:05;;;;;;;24.92;20.10;;;;;;;;;;4997266;28;92512;-77
2022/11/13 01:40:50;;;;;;;27.08;19.33;;;;;;;;;;4994548;28;92812;-77
2022/11/13 01:43:36;;;;;;;32.22;19.15;;;;;;;;;;4994238;28;92431;-77
2022/11/13 01:46:25;;;;;;;27.60;19.25;;;;;;;;;;4996055;28;92475;-78
2022/11/13 01:49:10;;;;;;;25.20;19.05;;;;;;;;;;4995718;28;91946;-78
2022/11/13 01:51:57;;;;;;;29.67;18.30;;;;;;;;;;4997918;28;92446;-78
2022/11/13 01:54:53;;;;;;;26.30;17.85;;;;;;;;;;4996531;28;92493;-77
2022/11/13 01:57:39;;;;;;;25.95;18.33;;;;;;;;;;4993391;28;95091;-79
2022/11/13 02:00:24;;;;;;;23.33;17.40;;;;;;;;;;4998933;28;92452;-79
2022/11/13 02:03:10;;;;;;;26.90;18.63;;;;;;;;;;4993229;28;92690;-78
2022/11/13 02:05:55;;;;;;;19.92;16.13;;;;;;;;;;4995478;28;92489;-78
2022/11/13 02:08:40;;;;;;;23.13;15.80;;;;;;;;;;4993992;28;92463;-78
2022/11/13 02:11:25;;;;;;;28.13;16.90;;;;;;;;;;4996914;28;92670;-77
2022/11/13 02:14:10;;;;;;;19.48;15.90;;;;;;;;;;4994903;28;92473;-77
2022/11/13 02:16:59;;;;;;;22.65;16.90;;;;;;;;;;4996539;28;92497;-77
2022/11/13 02:19:46;;;;;;;20.08;15.45;;;;;;;;;;4995913;28;92597;-78
2022/11/13 02:22:50;;;;;;;25.55;16.63;;;;;;;;;;4994121;28;92369;-78
2022/11/13 02:25:36;;;;;;;22.05;14.80;;;;;;;;;;4996975;28;94813;-78
2022/11/13 02:28:22;;;;;;;19.05;15.30;;;;;;;;;;4996349;28;92420;-78
2022/11/13 02:31:09;;;;;;;21.27;16.02;;;;;;;;;;4994833;28;92464;-77
2022/11/13 02:33:54;;;;;;;20.98;15.93;;;;;;;;;;4995584;28;92662;-78
2022/11/13 02:36:39;;;;;;;21.85;15.40;;;;;;;;;;4995443;28;92413;-78
2022/11/13 02:39:23;;;;;;;21.27;15.65;;;;;;;;;;4994837;28;92520;-77
2022/11/13 02:42:08;;;;;;;18.88;15.10;;;;;;;;;;4995772;28;92697;-78
2022/11/13 02:44:53;;;;;;;23.08;16.33;;;;;;;;;;4990497;28;91743;-78
2022/11/13 02:47:38;;;;;;;21.35;15.43;;;;;;;;;;4997686;28;92340;-78
2022/11/13 02:50:23;;;;;;;16.90;15.10;;;;;;;;;;4994718;28;92571;-77
2022/11/13 02:53:08;;;;;;;17.50;14.40;;;;;;;;;;4994356;28;94804;-78
2022/11/13 02:55:53;;;;;;;18.15;14.60;;;;;;;;;;4994298;28;92634;-79
2022/11/13 02:58:38;;;;;;;18.85;14.73;;;;;;;;;;4994280;28;92489;-77
2022/11/13 03:01:23;;;;;;;24.40;14.98;;;;;;;;;;4995920;28;92509;-78
2022/11/13 03:04:11;;;;;;;18.52;14.48;;;;;;;;;;4985914;28;93828;-78
2022/11/13 03:06:56;;;;;;;19.75;15.23;;;;;;;;;;4995077;28;92389;-78
2022/11/13 03:09:40;;;;;;;21.70;15.20;;;;;;;;;;4995057;28;92505;-77
2022/11/13 03:12:26;;;;;;;20.13;14.90;;;;;;;;;;4999073;28;92806;-77
2022/11/13 03:15:10;;;;;;;26.08;16.30;;;;;;;;;;4993525;28;92271;-77
2022/11/13 03:17:56;;;;;;;21.27;16.90;;;;;;;;;;4994128;28;92664;-77
2022/11/13 03:20:42;;;;;;;21.42;16.10;;;;;;;;;;4993811;28;94921;-77
2022/11/13 03:23:27;;;;;;;24.90;16.67;;;;;;;;;;4994308;28;94762;-78
2022/11/13 03:26:14;;;;;;;23.65;17.48;;;;;;;;;;4994836;28;92687;-77
2022/11/13 03:29:00;;;;;;;22.17;15.95;;;;;;;;;;4996295;28;92563;-77
2022/11/13 03:31:45;;;;;;;21.40;16.40;;;;;;;;;;4993719;28;92508;-77
2022/11/13 03:34:30;;;;;;;22.58;16.35;;;;;;;;;;4994773;28;92610;-77
2022/11/13 03:37:15;;;;;;;18.80;16.67;;;;;;;;;;4996719;28;92500;-77
2022/11/13 03:40:00;;;;;;;20.73;16.13;;;;;;;;;;4993556;28;91813;-77
2022/11/13 03:42:45;;;;;;;20.77;16.77;;;;;;;;;;4994747;28;92425;-78
2022/11/13 03:45:30;;;;;;;19.33;15.82;;;;;;;;;;4995322;28;92462;-77
2022/11/13 03:48:15;;;;;;;20.77;15.80;;;;;;;;;;4992255;28;95129;-78
2022/11/13 03:51:02;;;;;;;21.58;15.75;;;;;;;;;;4995027;28;92564;-77
2022/11/13 03:53:46;;;;;;;20.67;16.55;;;;;;;;;;4994791;28;92283;-77
2022/11/13 03:56:31;;;;;;;22.00;16.27;;;;;;;;;;4993072;28;92653;-77
2022/11/13 03:59:16;;;;;;;19.13;15.30;;;;;;;;;;4994799;28;92371;-77
2022/11/13 04:02:01;;;;;;;21.80;16.45;;;;;;;;;;4996436;28;96801;-78
2022/11/13 04:04:49;;;;;;;22.33;16.25;;;;;;;;;;4992747;28;92520;-78
2022/11/13 04:07:34;;;;;;;20.90;16.15;;;;;;;;;;4993800;28;92628;-78
2022/11/13 04:10:19;;;;;;;20.65;16.05;;;;;;;;;;4995192;28;92641;-78
2022/11/13 04:13:03;;;;;;;21.90;16.17;;;;;;;;;;4993625;28;92355;-77
2022/11/13 04:15:49;;;;;;;18.92;15.63;;;;;;;;;;4992396;28;95387;-78
2022/11/13 04:18:34;;;;;;;22.73;15.57;;;;;;;;;;4993996;28;92439;-77
2022/11/13 04:21:19;;;;;;;19.88;15.98;;;;;;;;;;4992113;28;92462;-77
2022/11/13 04:24:04;;;;;;;19.00;14.95;;;;;;;;;;4993743;28;92476;-77
2022/11/13 04:26:49;;;;;;;20.77;14.50;;;;;;;;;;4997639;28;92357;-77
2022/11/13 04:29:34;;;;;;;18.60;15.25;;;;;;;;;;4991692;28;92389;-77
2022/11/13 04:32:18;;;;;;;17.27;15.02;;;;;;;;;;4992691;28;92784;-77
2022/11/13 04:35:03;;;;;;;21.63;16.17;;;;;;;;;;4994077;28;91679;-78
2022/11/13 04:37:48;;;;;;;19.02;14.88;;;;;;;;;;4992873;28;92538;-77
2022/11/13 04:40:33;;;;;;;22.35;15.13;;;;;;;;;;4993330;28;92700;-77
2022/11/13 04:43:17;;;;;;;19.85;15.23;;;;;;;;;;4992347;28;94850;-77
2022/11/13 04:46:02;;;;;;;21.95;16.08;;;;;;;;;;4995711;28;94828;-78
2022/11/13 04:48:48;;;;;;;20.45;15.20;;;;;;;;;;4994029;28;92668;-78
2022/11/13 04:51:33;;;;;;;20.23;14.68;;;;;;;;;;4997501;28;92539;-77
2022/11/13 04:54:18;;;;;;;22.50;15.88;;;;;;;;;;4994702;28;92408;-77
2022/11/13 04:57:09;;;;;;;19.08;15.10;;;;;;;;;;4992072;28;92329;-78
2022/11/13 04:59:54;;;;;;;18.77;14.50;;;;;;;;;;4993918;28;92489;-77
2022/11/13 05:02:39;;;;;;;17.25;15.18;;;;;;;;;;4994707;28;91863;-78
2022/11/13 05:05:23;;;;;;;17.02;14.40;;;;;;;;;;4991992;28;92452;-77
2022/11/13 05:08:09;;;;;;;20.35;15.73;;;;;;;;;;4993749;28;92394;-78
2022/11/13 05:10:54;;;;;;;23.77;16.67;;;;;;;;;;4974227;28;95058;-77
2022/11/13 05:13:39;;;;;;;17.38;15.55;;;;;;;;;;4976492;28;92388;-77
2022/11/13 05:16:23;;;;;;;21.88;16.25;;;;;;;;;;4976965;28;92719;-77
2022/11/13 05:19:10;;;;;;;21.20;16.00;;;;;;;;;;4976418;28;92539;-77
2022/11/13 05:21:55;;;;;;;21.30;15.95;;;;;;;;;;4975366;28;92490;-77
2022/11/13 05:24:40;;;;;;;17.45;14.52;;;;;;;;;;4975699;28;92702;-77
2022/11/13 05:27:25;;;;;;;23.88;15.43;;;;;;;;;;4995464;28;92378;-77
2022/11/13 05:30:09;;;;;;;21.88;15.75;;;;;;;;;;4996114;28;92517;-77
2022/11/13 05:32:54;;;;;;;20.65;14.80;;;;;;;;;;4995553;28;92651;-77
2022/11/13 05:35:39;;;;;;;20.75;16.10;;;;;;;;;;4982660;28;92421;-76
2022/11/13 05:38:24;;;;;;;19.70;15.05;;;;;;;;;;4996122;28;94817;-77
2022/11/13 05:41:16;;;;;;;18.73;14.95;;;;;;;;;;4996044;28;92681;-77
2022/11/13 05:44:02;;;;;;;20.23;15.35;;;;;;;;;;4996882;28;92516;-77
2022/11/13 05:46:47;;;;;;;20.55;16.75;;;;;;;;;;4994154;28;92907;-79
2022/11/13 05:49:32;;;;;;;16.92;15.13;;;;;;;;;;4996137;28;92781;-77
2022/11/13 05:52:16;;;;;;;17.50;15.52;;;;;;;;;;4997228;28;92511;-77
2022/11/13 05:55:03;;;;;;;21.83;16.05;;;;;;;;;;4977263;28;92357;-77
2022/11/13 05:57:48;;;;;;;18.92;15.38;;;;;;;;;;4976484;28;91714;-78
2022/11/13 06:00:33;;;;;;;21.95;16.80;;;;;;;;;;4986864;28;92648;-77
2022/11/13 06:03:18;;;;;;;19.13;16.20;;;;;;;;;;4996279;28;93232;-77
2022/11/13 06:06:06;;;;;;;19.35;15.20;;;;;;;;;;4994476;28;95495;-76
2022/11/13 06:08:51;;;;;;;18.73;15.05;;;;;;;;;;4994439;28;93347;-77
2022/11/13 06:11:36;;;;;;;24.40;15.02;;;;;;;;;;4974712;28;92401;-77
2022/11/13 06:14:20;;;;;;;22.73;15.18;;;;;;;;;;4974813;28;92509;-77
2022/11/13 06:17:06;;;;;;;20.50;14.50;;;;;;;;;;4983785;28;92420;-77
2022/11/13 06:19:51;;;;;;;15.95;13.82;;;;;;;;;;4995854;28;92488;-77
2022/11/13 06:22:37;;;;;;;20.15;14.52;;;;;;;;;;4994504;28;92516;-76
2022/11/13 06:25:22;;;;;;;15.93;13.98;;;;;;;;;;4995685;28;91880;-77
2022/11/13 06:28:07;;;;;;;16.95;14.23;;;;;;;;;;4999768;28;92507;-77
2022/11/13 06:30:54;;;;;;;15.90;14.30;;;;;;;;;;4994846;28;92717;-76
2022/11/13 06:33:40;;;;;;;28.67;14.88;;;;;;;;;;4991726;28;94760;-76
2022/11/13 06:36:26;;;;;;;16.45;14.07;;;;;;;;;;4995624;28;94825;-76
2022/11/13 06:39:11;;;;;;;15.70;12.35;;;;;;;;;;4980483;28;93868;-76
2022/11/13 06:41:56;;;;;;;15.95;13.80;;;;;;;;;;4975742;28;92304;-77
2022/11/13 06:44:41;;;;;;;15.88;13.23;;;;;;;;;;4976523;28;92502;-78
2022/11/13 06:47:26;;;;;;;22.17;14.85;;;;;;;;;;4985269;28;92601;-76
2022/11/13 06:50:12;;;;;;;20.67;13.73;;;;;;;;;;4994780;28;92368;-77
2022/11/13 06:52:56;;;;;;;14.77;12.68;;;;;;;;;;4979790;28;92411;-77
2022/11/13 06:55:48;;;;;;;15.60;13.48;;;;;;;;;;4974009;28;92553;-77
2022/11/13 06:58:34;;;;;;;15.10;13.50;;;;;;;;;;4975285;28;92478;-77
2022/11/13 07:01:20;;;;;;;15.48;13.07;;;;;;;;;;4974627;28;95078;-77
2022/11/13 07:04:05;;;;;;;17.85;13.55;;;;;;;;;;4988810;28;92777;-77
2022/11/13 07:06:52;;;;;;;16.27;12.68;;;;;;;;;;4992489;28;92493;-77
2022/11/13 07:09:36;;;;;;;28.20;13.90;;;;;;;;;;4995805;28;92382;-77
2022/11/13 07:12:21;;;;;;;14.68;12.90;;;;;;;;;;4993807;28;92328;-77
2022/11/13 07:15:06;;;;;;;17.85;12.70;;;;;;;;;;4996480;28;92535;-77
2022/11/13 07:17:51;;;;;;;18.30;13.20;;;;;;;;;;4995862;28;92407;-77
2022/11/13 07:20:36;;;;;;;18.23;13.35;;;;;;;;;;4993227;28;92650;-77
2022/11/13 07:23:21;;;;;;;17.20;13.50;;;;;;;;;;4993712;28;92663;-77
2022/11/13 07:26:06;;;;;;;18.88;14.00;;;;;;;;;;4996539;28;92447;-77
2022/11/13 07:28:51;;;;;;;17.27;13.55;;;;;;;;;;4992540;28;94793;-77
2022/11/13 07:31:35;;;;;;;18.20;13.25;;;;;;;;;;4994096;28;92619;-77
2022/11/13 07:34:20;;;;;;;13.95;12.57;;;;;;;;;;4994887;28;94431;-76
2022/11/13 07:37:05;;;;;;;17.15;13.93;;;;;;;;;;4992149;28;92492;-77
2022/11/13 07:39:50;;;;;;;17.63;13.95;;;;;;;;;;4997326;28;92405;-76
2022/11/13 07:42:36;;;;;;;14.75;13.25;;;;;;;;;;4994536;28;92799;-78
2022/11/13 07:45:23;;;;;;;17.75;13.02;;;;;;;;;;4992525;28;92920;-77
2022/11/13 07:48:08;;;;;;;13.95;12.35;;;;;;;;;;4994210;28;92866;-76
2022/11/13 07:50:53;;;;;;;14.25;12.73;;;;;;;;;;4995969;28;92315;-76
2022/11/13 07:53:38;;;;;;;16.20;12.93;;;;;;;;;;4993790;28;93628;-77
2022/11/13 07:56:24;;;;;;;19.70;12.98;;;;;;;;;;4990722;28;96148;-76
2022/11/13 07:59:09;;;;;;;17.45;12.68;;;;;;;;;;4990130;28;94861;-79
2022/11/13 08:01:55;;;;;;;14.43;12.57;;;;;;;;;;4992300;28;94069;-79
2022/11/13 08:04:40;;;;;;;17.63;13.73;;;;;;;;;;4988188;28;93793;-77
2022/11/13 08:07:25;;;;;;;14.30;12.80;;;;;;;;;;4989629;28;95051;-78
2022/11/13 08:10:11;;;;;;;14.00;12.18;;;;;;;;;;4980410;28;92512;-79
2022/11/13 08:13:01;;;;;;;16.90;13.90;;;;;;;;;;4986977;28;92460;-79
2022/11/13 08:15:46;;;;;;;15.60;13.88;;;;;;;;;;4995010;28;91930;-79
2022/11/13 08:18:31;;;;;;;17.90;14.48;;;;;;;;;;4994068;28;92386;-79
2022/11/13 08:21:17;;;;;;;17.52;14.35;;;;;;;;;;4993728;28;92561;-79
2022/11/13 08:24:02;;;;;;;18.00;14.55;;;;;;;;;;4991348;28;95084;-79
2022/11/13 08:26:47;;;;;;;15.18;13.55;;;;;;;;;;4985513;28;93513;-79
2022/11/13 08:29:32;;;;;;;14.32;13.00;;;;;;;;;;4990505;28;93308;-79
2022/11/13 08:32:18;;;;;;;14.43;12.93;;;;;;;;;;4987525;28;92686;-78
2022/11/13 08:35:03;;;;;;;14.75;12.98;;;;;;;;;;4988872;28;94235;-79
2022/11/13 08:37:48;;;;;;;16.48;12.95;;;;;;;;;;4986065;28;92602;-78
2022/11/13 08:40:33;;;;;;;16.52;13.02;;;;;;;;;;4992510;28;93312;-79
2022/11/13 08:43:18;;;;;;;15.65;12.95;;;;;;;;;;4990328;28;92518;-78
2022/11/13 08:46:03;;;;;;;18.50;13.07;;;;;;;;;;4987407;28;93811;-78
2022/11/13 08:48:48;;;;;;;15.18;13.07;;;;;;;;;;5001498;28;92492;-78
2022/11/13 08:51:33;;;;;;;16.25;13.68;;;;;;;;;;5009446;28;95653;-77
2022/11/13 08:54:19;;;;;;;15.75;12.00;;;;;;;;;;4985383;28;92357;-76
2022/11/13 08:57:04;;;;;;;13.85;12.40;;;;;;;;;;4999454;28;93625;-78
2022/11/13 08:59:50;;;;;;;15.55;12.85;;;;;;;;;;5005479;28;92456;-78
2022/11/13 09:02:34;;;;;;;14.15;12.73;;;;;;;;;;4989911;28;92496;-78
2022/11/13 09:05:19;;;;;;;20.00;12.43;;;;;;;;;;4989769;28;94408;-77
2022/11/13 09:08:05;;;;;;;15.55;12.68;;;;;;;;;;4982199;28;92715;-78
2022/11/13 09:10:50;;;;;;;14.27;12.77;;;;;;;;;;4993866;28;92958;-78
2022/11/13 09:13:36;;;;;;;14.23;12.13;;;;;;;;;;4995878;28;92465;-77
2022/11/13 09:16:28;;;;;;;14.30;12.05;;;;;;;;;;4994408;28;93442;-77
2022/11/13 09:19:12;;;;;;;18.55;12.43;;;;;;;;;;4984837;28;95569;-81
2022/11/13 09:21:57;;;;;;;16.27;12.00;;;;;;;;;;4967897;28;95196;-79
2022/11/13 09:24:43;;;;;;;20.08;11.50;;;;;;;;;;4973055;28;93024;-80
2022/11/13 09:27:28;;;;;;;14.43;12.13;;;;;;;;;;4973103;28;92556;-81
2022/11/13 09:30:14;;;;;;;13.32;12.02;;;;;;;;;;4968336;28;92660;-78
2022/11/13 09:33:00;;;;;;;13.00;11.63;;;;;;;;;;4973645;28;92442;-79
2022/11/13 09:35:45;;;;;;;13.55;10.73;;;;;;;;;;4971426;28;92471;-80
2022/11/13 09:38:30;;;;;;;13.88;11.25;;;;;;;;;;4963076;28;92019;-79
2022/11/13 09:41:18;;;;;;;13.10;11.70;;;;;;;;;;4969220;28;92404;-77
2022/11/13 09:44:22;;;;;;;17.75;11.40;;;;;;;;;;4976106;28;92970;-79
2022/11/13 09:47:13;;;;;;;14.75;11.43;;;;;;;;;;4970264;28;94911;-78
2022/11/13 09:50:19;;;;;;;17.73;11.05;;;;;;;;;;4970824;28;94843;-77
2022/11/13 09:53:04;;;;;;;15.68;11.30;;;;;;;;;;4971328;28;92465;-79
2022/11/13 09:55:56;;;;;;;13.30;10.30;;;;;;;;;;4975229;28;92393;-78
2022/11/13 09:58:47;;;;;;;10.98;9.93;;;;;;;;;;4975955;28;92319;-77
2022/11/13 10:01:42;;;;;;;11.05;10.00;;;;;;;;;;4961204;28;92669;-78
2022/11/13 10:04:39;;;;;;;12.68;10.40;;;;;;;;;;4964889;28;92494;-77
2022/11/13 10:07:34;;;;;;;15.27;10.70;;;;;;;;;;4977529;28;92495;-76
2022/11/13 10:10:25;;;;;;;14.73;10.70;;;;;;;;;;4961590;28;92340;-79
2022/11/13 10:13:14;;;;;;;11.48;9.27;;;;;;;;;;4976691;28;92487;-77
2022/11/13 10:16:04;;;;;;;12.00;9.18;;;;;;;;;;4960204;28;94839;-77
2022/11/13 10:18:49;;;;;;;10.48;9.30;;;;;;;;;;4960649;28;93617;-78
2022/11/13 10:21:41;;;;;;;10.52;9.13;;;;;;;;;;4994392;28;92616;-78
2022/11/13 10:24:27;;;;;;;10.55;9.02;;;;;;;;;;4996800;28;92690;-77
2022/11/13 10:27:12;;;;;;;17.02;9.55;;;;;;;;;;4997199;28;92516;-78
2022/11/13 10:29:58;;;;;;;12.02;9.07;;;;;;;;;;4996315;28;93293;-78
2022/11/13 10:32:43;;;;;;;15.30;9.07;;;;;;;;;;4999833;28;92892;-75
2022/11/13 10:35:41;;;;;;;12.25;8.70;;;;;;;;;;4996973;28;92441;-77
2022/11/13 10:38:48;;;;;;;9.23;8.30;;;;;;;;;;4994711;28;92653;-76
2022/11/13 10:41:44;;;;;;;11.65;8.32;;;;;;;;;;4996300;28;92965;-78
2022/11/13 10:44:36;;;;;;;9.73;8.10;;;;;;;;;;4994569;28;94820;-78
2022/11/13 10:47:22;;;;;;;14.73;8.10;;;;;;;;;;4996130;28;93350;-77
2022/11/13 10:50:32;;;;;;;11.45;7.97;;;;;;;;;;4997244;28;92392;-78
2022/11/13 10:53:18;;;;;;;11.10;8.43;;;;;;;;;;4996189;28;92381;-77
2022/11/13 10:56:11;;;;;;;14.75;8.15;;;;;;;;;;4996525;28;92760;-81
2022/11/13 10:59:03;;;;;;;11.77;7.75;;;;;;;;;;5000515;28;92529;-78
2022/11/13 11:01:49;;;;;;;10.23;8.33;;;;;;;;;;4977748;28;92498;-79
2022/11/13 11:04:33;;;;;;;9.00;8.10;;;;;;;;;;4977187;28;91576;-79
2022/11/13 11:07:22;;;;;;;15.55;7.60;;;;;;;;;;4977243;28;92374;-79
2022/11/13 11:10:21;;;;;;;8.63;7.40;;;;;;;;;;4978292;28;94231;-77
2022/11/13 11:13:10;;;;;;;15.77;7.85;;;;;;;;;;4994662;28;94948;-79
2022/11/13 11:16:00;;;;;;;11.63;7.35;;;;;;;;;;4994851;28;94093;-79
2022/11/13 11:18:48;;;;;;;8.65;6.85;;;;;;;;;;4994602;28;92624;-79
2022/11/13 11:21:35;;;;;;;8.23;6.50;;;;;;;;;;4996232;28;92457;-78
2022/11/13 11:24:25;;;;;;;13.65;7.40;;;;;;;;;;4996364;28;92442;-80
2022/11/13 11:27:28;;;;;;;8.82;6.78;;;;;;;;;;4996411;28;92434;-78
2022/11/13 11:30:25;;;;;;;10.52;7.25;;;;;;;;;;4976149;28;93084;-78
2022/11/13 11:33:14;;;;;;;11.85;7.05;;;;;;;;;;4976144;28;91942;-78
2022/11/13 11:36:20;;;;;;;12.48;6.70;;;;;;;;;;4961805;28;92344;-78
2022/11/13 11:39:24;;;;;;;8.82;6.72;;;;;;;;;;4984733;28;92471;-79
2022/11/13 11:42:16;;;;;;;10.02;6.70;;;;;;;;;;4994417;28;94948;-78
2022/11/13 11:45:15;;;;;;;9.43;6.68;;;;;;;;;;4993520;28;92444;-79
2022/11/13 11:48:03;;;;;;;13.27;6.35;;;;;;;;;;4995134;28;92550;-77
2022/11/13 11:51:16;;;;;;;10.43;6.60;;;;;;;;;;4999856;28;92678;-77
2022/11/13 11:54:10;;;;;;;7.50;5.95;;;;;;;;;;4994506;28;92480;-78
2022/11/13 11:56:58;;;;;;;12.75;5.53;;;;;;;;;;4996569;28;92578;-80
2022/11/13 12:00:01;;;;;;;6.10;5.50;;;;;;;;;;4994877;28;92681;-79
2022/11/13 12:02:49;;;;;;;8.63;6.50;;;;;;;;;;4996552;28;92403;-79
2022/11/13 12:05:40;;;;;;;7.95;6.38;;;;;;;;;;4995568;28;93028;-78
2022/11/13 12:08:34;;;;;;;6.72;5.55;;;;;;;;;;4994870;28;92343;-78
2022/11/13 12:11:26;;;;;;;8.48;5.97;;;;;;;;;;4994268;28;95141;-80
2022/11/13 12:14:11;;;;;;;8.88;5.47;;;;;;;;;;4996461;28;92398;-78
2022/11/13 12:17:04;;;;;;;8.38;5.55;;;;;;;;;;4992035;28;92421;-82
2022/11/13 12:20:00;;;;;;;5.28;4.78;;;;;;;;;;4988464;28;92736;-79
2022/11/13 12:22:59;;;;;;;5.55;5.07;;;;;;;;;;4978568;28;92634;-78
2022/11/13 12:25:49;;;;;;;9.82;5.18;;;;;;;;;;4997249;28;92833;-79
2022/11/13 12:28:47;;;;;;;6.22;5.15;;;;;;;;;;4999456;28;92652;-80
2022/11/13 12:31:51;;;;;;;10.45;5.82;;;;;;;;;;4996871;28;92630;-79
2022/11/13 12:34:45;;;;;;;9.70;5.57;;;;;;;;;;4997992;28;94460;-80
2022/11/13 12:37:50;;;;;;;8.68;6.22;;;;;;;;;;4996066;28;92629;-79
2022/11/13 12:40:50;;;;;;;8.10;5.07;;;;;;;;;;4990637;28;95143;-79
2022/11/13 12:43:53;;;;;;;5.63;5.03;;;;;;;;;;4994579;28;92747;-82
2022/11/13 12:46:39;;;;;;;8.40;5.15;;;;;;;;;;4987146;28;92392;-80
2022/11/13 12:49:27;;;;;;;6.93;5.13;;;;;;;;;;4993411;28;92441;-81
2022/11/13 12:52:14;;;;;;;7.15;5.40;;;;;;;;;;4997277;28;94182;-79
2022/11/13 12:55:04;;;;;;;6.68;5.15;;;;;;;;;;4995241;28;92533;-81
2022/11/13 12:57:49;;;;;;;8.23;5.05;;;;;;;;;;4997682;28;92468;-80
2022/11/13 13:00:34;;;;;;;5.43;4.80;;;;;;;;;;4997124;28;93136;-81
2022/11/13 13:03:37;;;;;;;7.28;5.65;;;;;;;;;;4984843;28;92464;-80
2022/11/13 13:06:22;;;;;;;;;;;;;;;;;;4997226;28;93608;-80
2022/11/13 13:09:19;;;;;;;6.38;5.20;;;;;;;;;;4993248;28;95239;-80
2022/11/13 13:12:13;;;;;;;5.20;4.35;;;;;;;;;;4994447;28;94804;-79
2022/11/13 13:15:08;;;;;;;7.97;4.70;;;;;;;;;;4993322;28;92692;-79
2022/11/13 13:18:00;;;;;;;7.75;4.50;;;;;;;;;;4997193;28;92405;-82
2022/11/13 13:20:57;;;;;;;5.53;4.05;;;;;;;;;;4991731;28;92472;-82
2022/11/13 13:23:47;;;;;;;4.93;3.90;;;;;;;;;;4996619;28;92907;-82
2022/11/13 13:26:42;;;;;;;4.63;3.92;;;;;;;;;;4998389;28;92398;-82
2022/11/13 13:29:29;;;;;;;3.45;3.15;;;;;;;;;;4997917;28;92543;-82
2022/11/13 13:32:21;;;;;;;3.92;3.63;;;;;;;;;;5001485;28;92847;-81
2022/11/13 13:35:28;;;;;;;3.88;2.58;;;;;;;;;;4998556;28;92484;-81
2022/11/13 13:38:17;;;;;;;3.63;2.88;;;;;;;;;;4989969;28;96640;-81
2022/11/13 13:41:15;;;;;;;3.03;2.83;;;;;;;;;;4980395;28;92449;-82
2022/11/13 13:44:16;;;;;;;3.58;2.40;;;;;;;;;;4986239;28;92421;-81
2022/11/13 13:47:08;;;;;;;4.93;2.42;;;;;;;;;;4998052;28;92655;-82
2022/11/13 13:49:54;;;;;;;4.80;2.58;;;;;;;;;;4995850;28;92335;-83
2022/11/13 13:52:42;;;;;;;5.35;2.70;;;;;;;;;;4998157;28;92485;-82
2022/11/13 13:55:36;;;;;;;2.05;1.95;;;;;;;;;;4999130;28;92613;-82
2022/11/13 13:58:33;;;;;;;2.28;2.08;;;;;;;;;;5000206;28;91529;-82
2022/11/13 14:01:46;;;;;;;3.47;2.63;;;;;;;;;;4998286;28;92664;-81
2022/11/13 14:04:41;;;;;;;2.47;2.27;;;;;;;;;;4996747;28;92399;-81
2022/11/13 14:07:28;;;;;;;3.20;2.78;;;;;;;;;;4995982;28;94839;-81
2022/11/13 14:10:16;;;;;;;3.33;2.40;;;;;;;;;;4996883;28;92600;-82
2022/11/13 14:13:02;;;;;;;4.68;2.97;;;;;;;;;;4978198;28;92442;-81
2022/11/13 14:15:47;;;;;;;2.17;2.08;;;;;;;;;;5000210;28;92433;-82
2022/11/13 14:18:33;;;;;;;8.30;2.15;;;;;;;;;;5000386;28;92695;-82
2022/11/13 14:21:23;;;;;;;2.03;1.92;;;;;;;;;;4999833;28;92448;-81
2022/11/13 14:24:14;;;;;;;5.15;2.42;;;;;;;;;;5001458;28;92436;-82
2022/11/13 14:27:02;;;;;;;2.65;2.40;;;;;;;;;;4999776;28;91675;-82
2022/11/13 14:29:48;;;;;;;3.00;2.80;;;;;;;;;;4997447;28;92257;-82
2022/11/13 14:32:39;;;;;;;3.00;2.65;;;;;;;;;;4997044;28;92733;-81
2022/11/13 14:35:31;;;;;;;3.85;2.63;;;;;;;;;;4996887;28;94679;-82
2022/11/13 14:38:18;;;;;;;3.13;2.53;;;;;;;;;;4997357;28;94946;-81
2022/11/13 14:41:04;;;;;;;3.08;2.80;;;;;;;;;;4999568;28;92992;-80
2022/11/13 14:43:53;;;;;;;4.15;2.40;;;;;;;;;;4999052;28;92998;-81
2022/11/13 14:46:44;;;;;;;5.18;2.78;;;;;;;;;;4999743;28;92427;-82
2022/11/13 14:49:31;;;;;;;3.22;2.28;;;;;;;;;;4983204;28;92407;-81
2022/11/13 14:52:23;;;;;;;3.15;2.55;;;;;;;;;;4999293;28;92481;-82
2022/11/13 14:55:19;;;;;;;2.85;2.60;;;;;;;;;;4997252;28;91971;-81
2022/11/13 14:58:04;;;;;;;3.95;2.80;;;;;;;;;;4999248;28;92447;-83
2022/11/13 15:00:49;;;;;;;2.70;2.50;;;;;;;;;;4996905;28;92429;-82
2022/11/13 15:03:37;;;;;;;5.25;3.03;;;;;;;;;;4995501;28;95063;-81
2022/11/13 15:06:24;;;;;;;4.18;2.80;;;;;;;;;;4998334;28;92367;-81
2022/11/13 15:09:12;;;;;;;5.60;2.97;;;;;;;;;;4980310;28;92639;-81
2022/11/13 15:12:04;;;;;;;3.53;2.22;;;;;;;;;;5001536;28;92383;-82
2022/11/13 15:14:50;;;;;;;4.15;2.50;;;;;;;;;;4999027;28;92405;-81
2022/11/13 15:17:35;;;;;;;4.88;3.20;;;;;;;;;;4996145;28;92454;-81
2022/11/13 15:20:25;;;;;;;5.55;2.30;;;;;;;;;;4996453;28;92481;-82
2022/11/13 15:23:14;;;;;;;8.32;2.60;;;;;;;;;;4999560;28;91734;-82
2022/11/13 15:26:00;;;;;;;5.28;3.00;;;;;;;;;;4997703;28;92697;-82
2022/11/13 15:28:45;;;;;;;7.53;2.60;;;;;;;;;;4998189;28;92353;-82
2022/11/13 15:31:34;;;;;;;2.47;2.28;;;;;;;;;;4996840;28;95276;-82
2022/11/13 15:34:21;;;;;;;4.18;2.25;;;;;;;;;;4999013;28;92355;-82
2022/11/13 15:37:16;;;;;;;3.85;2.75;;;;;;;;;;4999083;28;92631;-82
2022/11/13 15:40:01;;;;;;;4.75;2.58;;;;;;;;;;4991576;28;92302;-81
2022/11/13 15:42:46;;;;;;;5.78;2.20;;;;;;;;;;4995066;28;92907;-82
2022/11/13 15:45:31;;;;;;;2.47;2.15;;;;;;;;;;4995539;28;92404;-82
2022/11/13 15:48:16;;;;;;;3.85;2.92;;;;;;;;;;4996949;28;92579;-82
2022/11/13 15:51:00;;;;;;;3.38;3.08;;;;;;;;;;4994402;28;91675;-82
2022/11/13 15:53:48;;;;;;;3.30;3.05;;;;;;;;;;4995645;28;92479;-82
2022/11/13 15:56:33;;;;;;;5.35;4.25;;;;;;;;;;4995933;28;92374;-82
2022/11/13 15:59:17;;;;;;;8.50;4.45;;;;;;;;;;4991926;28;94771;-82
2022/11/13 16:02:03;;;;;;;5.25;4.85;;;;;;;;;;4998393;28;94812;-81
2022/11/13 16:04:48;;;;;;;8.10;4.47;;;;;;;;;;4995691;28;93027;-82
2022/11/13 16:07:41;;;;;;;;;;;;;;;;;;4994338;28;92405;-82
2022/11/13 16:10:26;;;;;;;11.68;5.68;;;;;;;;;;4996626;28;92658;-82
2022/11/13 16:13:11;;;;;;;5.97;5.18;;;;;;;;;;4996306;28;92319;-82
2022/11/13 16:15:56;;;;;;;9.48;5.80;;;;;;;;;;4994422;28;92418;-82
2022/11/13 16:18:42;;;;;;;8.18;5.28;;;;;;;;;;4994804;28;91836;-82
2022/11/13 16:21:27;;;;;;;7.88;5.20;;;;;;;;;;4995514;28;92435;-81
2022/11/13 16:24:12;;;;;;;7.35;6.30;;;;;;;;;;4994392;28;92568;-81
2022/11/13 16:26:57;;;;;;;8.32;5.88;;;;;;;;;;4994910;28;95538;-78